Enterprise, Oregon
Current Conditions -  °F | °C
As of 10:15 PM on Sunday 25 Jan 2015 (Local Time) from KLGD Reporting Station
Clear Clear  
Wind Chill: 36°   Ceiling: Unl
Heat Index: 45°   Visibility: 10mi
Dew Point: 30°   Wind: 23mph
Humidity: 57%   Direction: 180°S
Pressure: 30.26"   Gusts: 29mph
Location:  45.43°N, 117.28°W
Report Text: KLGD 260615Z AUTO 18020G25KT 10SM CLR 07/M01 A3026 RMK AO1
Loading
Personal Weather Stations






























Interactive Weather Map New forecast layout! Learn more

10-Day Weather Forecast

Advertisements
Track Severe Weather on mobile